Time;durP1;ratioP1;P1;durP2;ratioP2;P2;SDS_P1;SDS_P2;PMS_P1;PMS_P2;Temp;Humidity;BMP_temperature;BMP_pressure;BME280_temperature;BME280_humidity;BME280_pressure;Samples;Min_cycle;Max_cycle;Signal;HPM_P1;HPM_P2
2024/01/08 00:00:47;;;;;;;10.63;7.00;;;-1.70;99.90;;;;;;2071956;28;20064;-70
2024/01/08 00:01:51;;;;;;;11.63;6.88;;;-1.70;99.90;;;;;;2070966;28;20026;-70
2024/01/08 00:02:51;;;;;;;10.77;6.90;;;-1.70;99.90;;;;;;2073880;28;20069;-72
2024/01/08 00:03:52;;;;;;;13.30;7.00;;;-1.70;99.90;;;;;;2071995;28;20471;-71
2024/01/08 00:04:53;;;;;;;9.70;6.20;;;-1.70;99.90;;;;;;2074616;28;20103;-71
2024/01/08 00:05:53;;;;;;;10.65;6.85;;;-1.70;99.90;;;;;;2074267;28;20030;-71
2024/01/08 00:06:54;;;;;;;11.48;6.68;;;-1.70;99.90;;;;;;2071498;28;20049;-72
2024/01/08 00:07:54;;;;;;;12.35;7.00;;;-1.70;99.90;;;;;;2074418;28;20037;-70
2024/01/08 00:08:55;;;;;;;11.18;6.93;;;-1.70;99.90;;;;;;2073974;28;20033;-71
2024/01/08 00:09:55;;;;;;;13.02;7.47;;;-1.60;99.90;;;;;;2072322;28;20088;-71
2024/01/08 00:10:56;;;;;;;10.95;6.95;;;-1.60;99.90;;;;;;2075405;28;20723;-71
2024/01/08 00:11:56;;;;;;;10.88;7.30;;;-1.60;99.90;;;;;;2069889;28;20050;-72
2024/01/08 00:12:57;;;;;;;11.85;6.80;;;-1.60;99.90;;;;;;2070772;28;20034;-71
2024/01/08 00:13:57;;;;;;;11.43;7.15;;;-1.50;99.90;;;;;;2071670;28;20109;-70
2024/01/08 00:14:58;;;;;;;10.57;7.32;;;-1.60;99.90;;;;;;2069576;28;20205;-71
2024/01/08 00:15:58;;;;;;;10.77;7.05;;;-1.70;99.90;;;;;;2073115;28;20064;-71
2024/01/08 00:16:59;;;;;;;12.70;7.75;;;-1.70;99.90;;;;;;2064170;28;20030;-71
2024/01/08 00:18:00;;;;;;;10.77;7.25;;;-1.70;99.90;;;;;;2073567;28;20085;-69
2024/01/08 00:19:00;;;;;;;12.38;7.10;;;-1.80;99.90;;;;;;2069764;28;20482;-72
2024/01/08 00:20:01;;;;;;;11.13;7.07;;;-1.80;99.90;;;;;;2069779;28;20068;-70
2024/01/08 00:21:02;;;;;;;9.82;6.82;;;-1.70;99.90;;;;;;2073819;28;20044;-71
2024/01/08 00:22:03;;;;;;;12.13;7.47;;;-1.70;99.90;;;;;;2074830;28;20033;-71
2024/01/08 00:23:03;;;;;;;10.95;7.13;;;-1.70;99.90;;;;;;2075835;28;20036;-71
2024/01/08 00:24:04;;;;;;;12.18;7.63;;;-1.70;99.90;;;;;;2070648;28;20196;-71
2024/01/08 00:25:06;;;;;;;12.52;7.50;;;-1.70;99.90;;;;;;2074950;28;20040;-70
2024/01/08 00:26:07;;;;;;;12.50;7.47;;;-1.60;99.90;;;;;;2071896;28;20038;-70
2024/01/08 00:27:07;;;;;;;10.05;7.13;;;-1.60;99.90;;;;;;2067752;28;20120;-71
2024/01/08 00:28:08;;;;;;;11.63;7.80;;;-1.60;99.90;;;;;;2070291;28;20042;-71
2024/01/08 00:29:08;;;;;;;12.68;7.72;;;-1.70;99.90;;;;;;2076264;28;20030;-71
2024/01/08 00:30:09;;;;;;;14.40;8.15;;;-1.70;99.90;;;;;;2070893;28;20112;-71
2024/01/08 00:31:10;;;;;;;11.70;7.47;;;-1.70;99.90;;;;;;2072513;28;20127;-71
2024/01/08 00:32:11;;;;;;;11.90;7.57;;;-1.70;99.90;;;;;;2070616;28;20042;-69
2024/01/08 00:33:11;;;;;;;12.05;7.43;;;-1.70;99.90;;;;;;2073820;28;20056;-71
2024/01/08 00:34:12;;;;;;;12.52;7.95;;;-1.70;99.90;;;;;;2069503;28;20036;-70
2024/01/08 00:35:13;;;;;;;12.18;7.88;;;-1.70;99.90;;;;;;2075386;28;20088;-71
2024/01/08 00:36:14;;;;;;;11.90;7.68;;;-1.80;99.90;;;;;;2069691;28;20060;-70
2024/01/08 00:37:14;;;;;;;12.27;7.60;;;-1.70;99.90;;;;;;2052750;28;20038;-70
2024/01/08 00:38:15;;;;;;;12.38;8.15;;;-1.70;99.90;;;;;;2075132;28;20026;-71
2024/01/08 00:39:15;;;;;;;11.95;7.85;;;-1.70;99.90;;;;;;2067562;28;20069;-69
2024/01/08 00:40:16;;;;;;;11.20;7.40;;;-1.60;99.90;;;;;;2067871;28;20030;-71
2024/01/08 00:41:16;;;;;;;12.85;8.27;;;-1.60;99.90;;;;;;2075664;28;20090;-80
2024/01/08 00:42:17;;;;;;;12.75;7.65;;;-1.70;99.90;;;;;;2076200;28;20032;-73
2024/01/08 00:43:17;;;;;;;10.40;7.32;;;-1.70;99.90;;;;;;2075897;28;20032;-84
2024/01/08 00:44:18;;;;;;;11.93;7.47;;;-1.60;99.90;;;;;;2080649;28;20412;-83
2024/01/08 00:45:18;;;;;;;10.70;7.30;;;-1.60;99.90;;;;;;2080208;28;20034;-78
2024/01/08 00:46:19;;;;;;;11.60;7.75;;;-1.60;99.90;;;;;;2071949;28;20064;-79
2024/01/08 00:47:20;;;;;;;11.50;7.82;;;-1.60;99.90;;;;;;2072479;28;20056;-79
2024/01/08 00:48:20;;;;;;;11.73;7.88;;;-1.60;99.90;;;;;;2080326;28;20030;-79
2024/01/08 00:49:21;;;;;;;12.57;7.82;;;-1.50;99.90;;;;;;2070731;28;20427;-79
2024/01/08 00:50:23;;;;;;;11.65;7.70;;;-1.60;99.90;;;;;;2068495;28;20033;-78
2024/01/08 00:51:23;;;;;;;12.43;8.45;;;-1.60;99.90;;;;;;2076884;28;20026;-77
2024/01/08 00:52:24;;;;;;;13.73;7.93;;;-1.70;99.90;;;;;;2076714;28;20385;-77
2024/01/08 00:53:24;;;;;;;11.65;8.00;;;-1.70;99.90;;;;;;2072687;28;20030;-78
2024/01/08 00:54:25;;;;;;;13.10;8.30;;;-1.80;99.90;;;;;;2076238;28;20025;-78
2024/01/08 00:55:25;;;;;;;12.90;8.38;;;-1.80;99.90;;;;;;2076233;28;20515;-79
2024/01/08 00:56:26;;;;;;;13.75;8.60;;;-1.80;99.90;;;;;;2068653;28;20033;-78
2024/01/08 00:57:26;;;;;;;13.82;8.25;;;-1.80;99.90;;;;;;2075772;28;20034;-78
2024/01/08 00:58:28;;;;;;;15.05;8.80;;;-1.80;99.90;;;;;;2079648;28;20628;-78
2024/01/08 00:59:28;;;;;;;12.48;8.13;;;-1.80;99.90;;;;;;2081033;28;20033;-78
2024/01/08 01:00:30;;;;;;;13.18;8.15;;;-1.80;99.90;;;;;;2076289;28;20104;-77
2024/01/08 01:01:31;;;;;;;14.25;8.23;;;-1.80;99.90;;;;;;2075453;28;20121;-77
2024/01/08 01:02:31;;;;;;;12.13;7.93;;;-1.80;99.90;;;;;;2068644;28;20507;-77
2024/01/08 01:03:32;;;;;;;12.88;7.65;;;-1.70;99.90;;;;;;2068220;28;20022;-78
2024/01/08 01:04:32;;;;;;;12.15;7.90;;;-1.70;99.90;;;;;;2059887;28;20113;-77
2024/01/08 01:05:33;;;;;;;12.30;8.07;;;-1.80;99.90;;;;;;2074987;28;20077;-78
2024/01/08 01:06:33;;;;;;;13.75;8.15;;;-1.80;99.90;;;;;;2078936;28;20025;-79
2024/01/08 01:07:35;;;;;;;12.35;8.32;;;-1.80;99.90;;;;;;2075692;28;20037;-78
2024/01/08 01:08:36;;;;;;;12.85;7.93;;;-1.80;99.90;;;;;;2072112;28;20034;-79
2024/01/08 01:09:36;;;;;;;13.70;8.27;;;-1.70;99.90;;;;;;2076397;28;20013;-78
2024/01/08 01:10:37;;;;;;;12.90;8.02;;;-1.80;99.90;;;;;;2071247;28;20030;-78
2024/01/08 01:11:37;;;;;;;12.48;8.00;;;-1.90;99.90;;;;;;2074141;28;20034;-77
2024/01/08 01:12:38;;;;;;;15.32;8.25;;;-1.90;99.90;;;;;;2076819;28;20399;-77
2024/01/08 01:13:38;;;;;;;12.15;7.50;;;-1.80;99.90;;;;;;2071705;28;20034;-77
2024/01/08 01:14:39;;;;;;;12.68;7.75;;;-1.70;99.90;;;;;;2073797;28;20443;-79
2024/01/08 01:15:39;;;;;;;12.38;7.63;;;-1.70;99.90;;;;;;2077772;28;20522;-77
2024/01/08 01:16:40;;;;;;;13.90;7.93;;;-1.70;99.90;;;;;;2077415;28;20033;-78
2024/01/08 01:17:40;;;;;;;13.40;7.80;;;-1.70;99.90;;;;;;2076709;28;20379;-79
2024/01/08 01:18:41;;;;;;;13.15;8.30;;;-1.70;99.90;;;;;;2075196;28;20026;-79
2024/01/08 01:19:42;;;;;;;14.07;8.50;;;-1.70;99.90;;;;;;2067979;28;20516;-79
2024/01/08 01:20:42;;;;;;;14.82;8.40;;;-1.60;99.90;;;;;;2074615;28;20147;-79
2024/01/08 01:21:43;;;;;;;14.85;8.43;;;-1.80;99.90;;;;;;2051957;28;20038;-78
2024/01/08 01:22:43;;;;;;;14.05;8.35;;;-1.80;99.90;;;;;;2059847;28;20026;-78
2024/01/08 01:23:44;;;;;;;14.35;8.32;;;-1.80;99.90;;;;;;2075807;28;20036;-78
2024/01/08 01:24:45;;;;;;;14.35;8.45;;;-1.90;99.90;;;;;;2078539;28;20065;-77
2024/01/08 01:25:45;;;;;;;16.88;8.77;;;-1.90;99.90;;;;;;2080163;28;20463;-78
2024/01/08 01:26:46;;;;;;;14.65;8.70;;;-1.90;99.90;;;;;;2077990;28;20573;-77
2024/01/08 01:27:46;;;;;;;16.48;8.50;;;-1.90;99.90;;;;;;2070282;28;20030;-79
2024/01/08 01:28:47;;;;;;;15.98;9.00;;;-1.90;99.90;;;;;;2080022;28;20176;-78
2024/01/08 01:29:47;;;;;;;17.08;9.15;;;-1.90;99.90;;;;;;2074607;28;20034;-79
2024/01/08 01:30:48;;;;;;;16.52;9.32;;;-2.10;99.90;;;;;;2072473;28;20030;-79
2024/01/08 01:31:48;;;;;;;15.70;9.05;;;-2.20;99.90;;;;;;2072762;28;20037;-78
2024/01/08 01:32:49;;;;;;;16.75;8.98;;;-2.10;99.90;;;;;;2069384;28;20050;-79
2024/01/08 01:33:49;;;;;;;16.17;9.20;;;-2.20;99.90;;;;;;2067512;28;20084;-78
2024/01/08 01:34:50;;;;;;;16.90;9.23;;;-2.30;99.90;;;;;;2076868;28;20095;-77
2024/01/08 01:35:50;;;;;;;16.02;9.43;;;-2.30;99.90;;;;;;2076262;28;20487;-78
2024/01/08 01:36:51;;;;;;;16.45;9.27;;;-2.30;99.90;;;;;;2080322;28;20029;-79
2024/01/08 01:37:51;;;;;;;16.25;9.65;;;-2.30;99.90;;;;;;2070551;28;20030;-79
2024/01/08 01:38:52;;;;;;;19.52;9.80;;;-2.30;99.90;;;;;;2071124;28;20041;-79
2024/01/08 01:39:53;;;;;;;15.50;9.00;;;-2.30;99.90;;;;;;2068849;28;20064;-79
2024/01/08 01:40:53;;;;;;;15.32;9.43;;;-2.20;99.90;;;;;;2067989;28;20034;-78
2024/01/08 01:41:54;;;;;;;17.85;9.45;;;-2.30;99.90;;;;;;2067986;28;20033;-78
2024/01/08 01:42:55;;;;;;;18.98;9.90;;;-2.20;99.90;;;;;;2076999;28;20044;-80
2024/01/08 01:43:55;;;;;;;14.40;8.77;;;-2.30;99.90;;;;;;2062369;28;20023;-79
2024/01/08 01:44:56;;;;;;;17.65;9.85;;;-2.30;99.90;;;;;;2067802;28;20483;-79
2024/01/08 01:46:07;;;;;;;16.13;9.52;;;-2.30;99.90;;;;;;2068701;28;20594;-78
2024/01/08 01:47:08;;;;;;;17.80;9.52;;;-2.20;99.90;;;;;;2072495;28;20132;-78
2024/01/08 01:48:09;;;;;;;17.83;9.80;;;-2.20;99.90;;;;;;2075972;28;20552;-78
2024/01/08 01:49:12;;;;;;;18.15;9.32;;;-2.20;99.90;;;;;;2073244;28;20092;-79
2024/01/08 01:50:12;;;;;;;17.27;10.38;;;-2.20;99.90;;;;;;2073002;28;20038;-78
2024/01/08 01:51:13;;;;;;;18.88;10.30;;;-2.30;99.90;;;;;;2074379;28;20022;-79
2024/01/08 01:52:14;;;;;;;16.73;9.65;;;-2.30;99.90;;;;;;2076335;28;20013;-78
2024/01/08 01:53:15;;;;;;;17.42;10.02;;;-2.30;99.90;;;;;;2071058;28;20026;-79
2024/01/08 01:54:18;;;;;;;20.00;10.10;;;-2.30;99.90;;;;;;2074559;28;20040;-79
2024/01/08 01:55:18;;;;;;;18.02;10.20;;;-2.40;99.90;;;;;;2068589;28;20530;-79
2024/01/08 01:56:19;;;;;;;17.63;10.13;;;-2.40;99.90;;;;;;2076228;28;20040;-79
2024/01/08 01:57:20;;;;;;;20.65;10.52;;;-2.40;99.90;;;;;;2076522;28;20029;-78
2024/01/08 01:58:21;;;;;;;17.08;10.15;;;-2.50;99.90;;;;;;2068507;28;20025;-78
2024/01/08 01:59:24;;;;;;;18.85;10.30;;;-2.40;99.90;;;;;;2069733;28;20068;-78
2024/01/08 02:00:24;;;;;;;17.40;10.30;;;-2.40;99.90;;;;;;2079029;28;20040;-78
2024/01/08 02:01:25;;;;;;;21.40;11.45;;;-2.40;99.90;;;;;;2068479;28;20112;-78
2024/01/08 02:02:27;;;;;;;24.63;12.13;;;-2.40;99.90;;;;;;2069410;28;20042;-79
2024/01/08 02:03:29;;;;;;;22.95;12.13;;;-2.40;99.90;;;;;;2069035;28;20062;-78
2024/01/08 02:04:30;;;;;;;23.60;12.30;;;-2.50;99.90;;;;;;2075883;28;20061;-78
2024/01/08 02:05:30;;;;;;;21.88;12.82;;;-2.60;99.90;;;;;;2075911;28;20033;-79
2024/01/08 02:06:32;;;;;;;21.80;12.20;;;-2.60;99.90;;;;;;2059669;28;20507;-78
2024/01/08 02:07:32;;;;;;;20.92;11.85;;;-2.50;99.90;;;;;;2063663;28;20042;-77
2024/01/08 02:08:33;;;;;;;21.58;12.27;;;-2.50;99.90;;;;;;2069393;28;20124;-77
2024/01/08 02:09:34;;;;;;;22.10;12.75;;;-2.60;99.90;;;;;;2068151;28;20014;-76
2024/01/08 02:10:36;;;;;;;23.38;12.48;;;-2.60;99.90;;;;;;2075573;28;20025;-77
2024/01/08 02:11:37;;;;;;;26.98;13.38;;;-2.60;99.90;;;;;;2070825;28;20018;-78
2024/01/08 02:12:37;;;;;;;24.20;13.65;;;-2.60;99.90;;;;;;2074469;28;20510;-77
2024/01/08 02:13:38;;;;;;;27.20;13.65;;;-2.60;99.90;;;;;;2071124;28;20056;-78
2024/01/08 02:14:39;;;;;;;24.80;13.35;;;-2.60;99.90;;;;;;2078385;28;20395;-79
2024/01/08 02:15:39;;;;;;;24.65;12.52;;;-2.70;99.90;;;;;;2078453;28;20056;-78
2024/01/08 02:16:41;;;;;;;22.92;12.60;;;-2.70;99.90;;;;;;2073810;28;20069;-78
2024/01/08 02:17:42;;;;;;;23.67;12.70;;;-2.70;99.90;;;;;;2071554;28;20025;-78
2024/01/08 02:18:42;;;;;;;25.52;13.10;;;-2.70;99.90;;;;;;2070867;28;20671;-78
2024/01/08 02:19:43;;;;;;;26.17;13.18;;;-2.70;99.90;;;;;;2068681;28;20730;-78
2024/01/08 02:20:43;;;;;;;26.75;14.10;;;-2.70;99.90;;;;;;2076918;28;20037;-77
2024/01/08 02:21:44;;;;;;;27.67;14.18;;;-2.70;99.90;;;;;;2076779;28;20024;-79
2024/01/08 02:22:45;;;;;;;25.00;13.32;;;-2.70;99.90;;;;;;2076911;28;20084;-78
2024/01/08 02:23:45;;;;;;;27.95;13.20;;;-2.70;99.90;;;;;;2075798;28;20080;-77
2024/01/08 02:24:46;;;;;;;26.83;13.57;;;-2.80;99.90;;;;;;2071593;28;20113;-76
2024/01/08 02:25:46;;;;;;;24.63;13.35;;;-2.80;99.90;;;;;;2068249;28;20068;-77
2024/01/08 02:26:47;;;;;;;26.38;13.25;;;-2.80;99.90;;;;;;2076161;28;20057;-78
2024/01/08 02:27:48;;;;;;;25.80;14.20;;;-2.80;99.90;;;;;;2076046;28;20029;-76
2024/01/08 02:28:48;;;;;;;26.17;14.10;;;-2.80;99.90;;;;;;2074950;28;20088;-78
2024/01/08 02:29:49;;;;;;;29.73;14.23;;;-2.80;99.90;;;;;;2075702;28;20060;-77
2024/01/08 02:30:49;;;;;;;29.77;14.70;;;-2.90;99.90;;;;;;2073518;28;20084;-78
2024/01/08 02:31:50;;;;;;;30.02;14.43;;;-2.90;99.90;;;;;;2070546;28;20507;-78
2024/01/08 02:32:50;;;;;;;25.17;13.73;;;-2.90;99.90;;;;;;2075751;28;20033;-79
2024/01/08 02:33:51;;;;;;;26.63;13.15;;;-3.00;99.90;;;;;;2076206;28;20033;-78
2024/01/08 02:34:51;;;;;;;27.38;14.10;;;-3.10;99.90;;;;;;2075121;28;20049;-76
2024/01/08 02:35:53;;;;;;;26.52;14.07;;;-3.10;99.90;;;;;;2075696;28;20077;-78
2024/01/08 02:36:54;;;;;;;24.23;13.40;;;-3.10;99.90;;;;;;2071806;28;20525;-78
2024/01/08 02:37:55;;;;;;;26.25;13.80;;;-3.20;99.90;;;;;;2079712;28;20147;-78
2024/01/08 02:38:55;;;;;;;27.80;14.27;;;-3.30;99.90;;;;;;2071382;28;20054;-77
2024/01/08 02:39:56;;;;;;;28.83;15.10;;;-3.30;99.90;;;;;;2070697;28;20038;-73
2024/01/08 02:40:57;;;;;;;25.48;14.02;;;-3.30;99.90;;;;;;2063920;28;20041;-72
2024/01/08 02:41:58;;;;;;;25.83;13.43;;;-3.40;99.90;;;;;;2071818;28;20522;-72
2024/01/08 02:42:59;;;;;;;26.58;14.20;;;-3.40;99.90;;;;;;2074402;28;20026;-72
2024/01/08 02:43:59;;;;;;;28.10;14.27;;;-3.50;99.90;;;;;;2068010;28;20026;-73
2024/01/08 02:45:00;;;;;;;27.33;13.75;;;-3.50;99.90;;;;;;2058834;28;20162;-74
2024/01/08 02:46:01;;;;;;;27.27;13.55;;;-3.40;99.90;;;;;;2048487;28;20034;-73
2024/01/08 02:47:01;;;;;;;26.02;12.65;;;-3.50;99.90;;;;;;2061905;28;20090;-73
2024/01/08 02:48:02;;;;;;;27.33;13.38;;;-3.50;99.90;;;;;;2067434;28;20053;-73
2024/01/08 02:49:03;;;;;;;24.15;13.70;;;-3.50;99.90;;;;;;2072075;28;20041;-73
2024/01/08 02:50:05;;;;;;;26.95;13.88;;;-3.50;99.90;;;;;;2071626;28;20032;-74
2024/01/08 02:51:05;;;;;;;33.10;15.07;;;-3.50;99.90;;;;;;2067313;28;20041;-73
2024/01/08 02:52:06;;;;;;;27.77;13.77;;;-3.50;99.90;;;;;;2075486;28;20059;-74
2024/01/08 02:53:06;;;;;;;29.38;14.27;;;-3.50;99.90;;;;;;2075872;28;20032;-73
2024/01/08 02:54:07;;;;;;;25.90;13.77;;;-3.50;99.90;;;;;;2069093;28;20024;-74
2024/01/08 02:55:09;;;;;;;26.65;13.07;;;-3.60;99.90;;;;;;2070617;28;20488;-72
2024/01/08 02:56:19;;;;;;;26.85;14.15;;;-3.60;99.90;;;;;;2075665;28;20177;-73
2024/01/08 02:57:20;;;;;;;25.45;13.57;;;-3.60;99.90;;;;;;2068323;28;20030;-72
2024/01/08 02:58:20;;;;;;;24.85;13.00;;;-3.70;99.90;;;;;;2068385;28;20030;-72
2024/01/08 02:59:21;;;;;;;25.05;13.13;;;-3.70;99.90;;;;;;2074833;28;20036;-72
2024/01/08 03:00:21;;;;;;;34.30;15.18;;;-3.80;99.90;;;;;;2067233;28;20038;-73
2024/01/08 03:01:22;;;;;;;28.30;14.30;;;-3.70;99.90;;;;;;2067241;28;20073;-72
2024/01/08 03:02:24;;;;;;;34.30;15.15;;;-3.70;99.90;;;;;;2071470;28;20587;-73
2024/01/08 03:03:25;;;;;;;24.02;13.07;;;-3.70;99.90;;;;;;2072446;28;20721;-71
2024/01/08 03:04:26;;;;;;;28.77;14.23;;;-3.80;99.90;;;;;;2068010;28;20073;-72
2024/01/08 03:05:27;;;;;;;26.23;14.02;;;-3.80;99.90;;;;;;2067132;28;20405;-72
2024/01/08 03:06:27;;;;;;;24.50;13.25;;;-3.80;99.90;;;;;;2073635;28;20034;-72
2024/01/08 03:07:28;;;;;;;28.55;14.18;;;-3.80;99.90;;;;;;2067895;28;20042;-72
2024/01/08 03:08:28;;;;;;;28.30;14.73;;;-3.80;99.90;;;;;;2069532;28;20036;-72
2024/01/08 03:09:29;;;;;;;26.50;13.10;;;-3.80;99.90;;;;;;2067889;28;20041;-72
2024/01/08 03:10:30;;;;;;;27.27;14.18;;;-3.80;99.90;;;;;;2075869;28;20018;-73
2024/01/08 03:11:30;;;;;;;28.85;14.23;;;-3.80;99.90;;;;;;2067957;28;20480;-73
2024/01/08 03:12:31;;;;;;;28.92;14.07;;;-3.90;99.90;;;;;;2067988;28;20032;-72
2024/01/08 03:13:31;;;;;;;26.38;13.90;;;-3.90;99.90;;;;;;2078830;28;20038;-72
2024/01/08 03:14:32;;;;;;;28.70;14.48;;;-3.90;99.90;;;;;;2078808;28;20060;-72
2024/01/08 03:15:33;;;;;;;24.48;13.50;;;-3.90;99.90;;;;;;2067833;28;20037;-72
2024/01/08 03:16:33;;;;;;;27.40;14.10;;;-4.00;99.90;;;;;;2071738;28;20105;-73
2024/01/08 03:17:35;;;;;;;27.13;14.07;;;-4.00;99.90;;;;;;2075023;28;20475;-73
2024/01/08 03:18:35;;;;;;;28.67;14.15;;;-4.00;99.90;;;;;;2078871;28;20040;-73
2024/01/08 03:19:36;;;;;;;27.65;14.02;;;-4.00;99.90;;;;;;2071340;28;20591;-75
2024/01/08 03:20:36;;;;;;;29.45;14.13;;;-4.00;99.90;;;;;;2067776;28;20436;-72
2024/01/08 03:21:39;;;;;;;28.52;14.10;;;-4.00;99.90;;;;;;2074864;28;20097;-72
2024/01/08 03:22:39;;;;;;;29.17;14.13;;;-4.10;99.90;;;;;;2073749;28;20503;-72
2024/01/08 03:23:40;;;;;;;25.67;13.40;;;-4.10;99.90;;;;;;2069140;28;20022;-71
2024/01/08 03:24:40;;;;;;;27.23;13.88;;;-4.10;99.90;;;;;;2070100;28;20029;-72
2024/01/08 03:25:41;;;;;;;27.17;14.02;;;-4.10;99.90;;;;;;2079847;28;20041;-72
2024/01/08 03:26:42;;;;;;;26.13;13.57;;;-4.10;99.90;;;;;;2080095;28;20025;-71
2024/01/08 03:27:42;;;;;;;27.08;13.77;;;-4.10;99.90;;;;;;2076040;28;20360;-72
2024/01/08 03:28:43;;;;;;;28.05;14.65;;;-4.10;99.90;;;;;;2070624;28;20034;-73
2024/01/08 03:29:43;;;;;;;30.30;14.25;;;-4.20;99.90;;;;;;2079017;28;20501;-73
2024/01/08 03:30:44;;;;;;;29.17;14.10;;;-4.20;99.90;;;;;;2070896;28;20464;-72
2024/01/08 03:31:44;;;;;;;26.90;14.15;;;-4.20;99.90;;;;;;2071466;28;20087;-73
2024/01/08 03:32:45;;;;;;;27.45;14.10;;;-4.20;99.90;;;;;;2078101;28;20056;-73
2024/01/08 03:33:45;;;;;;;29.42;14.35;;;-4.20;99.90;;;;;;2075543;28;20043;-72
2024/01/08 03:34:46;;;;;;;26.65;13.75;;;-4.20;99.90;;;;;;2070310;28;20508;-72
2024/01/08 03:35:46;;;;;;;26.23;13.77;;;-4.20;99.90;;;;;;2070240;28;20038;-73
2024/01/08 03:36:48;;;;;;;26.98;13.43;;;-4.10;99.90;;;;;;2078442;28;20029;-73
2024/01/08 03:37:49;;;;;;;26.35;13.73;;;-4.10;99.90;;;;;;2069943;28;20058;-73
2024/01/08 03:38:49;;;;;;;26.08;13.80;;;-4.10;99.90;;;;;;2072079;28;20029;-73
2024/01/08 03:39:50;;;;;;;25.55;13.48;;;-4.20;99.90;;;;;;2075384;28;20521;-73
2024/01/08 03:40:50;;;;;;;26.13;13.23;;;-4.30;99.90;;;;;;2071212;28;20452;-78
2024/01/08 03:41:51;;;;;;;27.88;14.07;;;-4.30;99.90;;;;;;2072218;28;20558;-77
2024/01/08 03:42:52;;;;;;;29.10;13.90;;;-4.30;99.90;;;;;;2077032;28;20099;-78
2024/01/08 03:43:53;;;;;;;29.17;14.40;;;-4.40;99.90;;;;;;2077094;28;20598;-78
2024/01/08 03:44:53;;;;;;;28.80;14.45;;;-4.40;99.90;;;;;;2075102;28;20109;-78
2024/01/08 03:45:54;;;;;;;26.23;13.82;;;-4.40;99.90;;;;;;2070713;28;20032;-78
2024/01/08 03:46:54;;;;;;;30.10;14.27;;;-4.50;99.90;;;;;;2073414;28;20139;-78
2024/01/08 03:47:55;;;;;;;26.30;13.65;;;-4.50;99.90;;;;;;2079063;28;20025;-78
2024/01/08 03:48:55;;;;;;;25.23;13.90;;;-4.50;99.90;;;;;;2075863;28;20051;-77
2024/01/08 03:49:56;;;;;;;25.73;13.50;;;-4.50;99.90;;;;;;2077568;28;20033;-79
2024/01/08 03:50:56;;;;;;;26.90;14.63;;;-4.60;99.90;;;;;;2076614;28;20041;-78
2024/01/08 03:51:57;;;;;;;25.48;14.13;;;-4.60;99.90;;;;;;2072628;28;20034;-78
2024/01/08 03:52:57;;;;;;;28.20;14.10;;;-4.60;99.90;;;;;;2073957;28;20038;-78
2024/01/08 03:53:58;;;;;;;27.52;14.02;;;-4.70;99.90;;;;;;2066882;28;20032;-79
2024/01/08 03:54:58;;;;;;;25.50;13.85;;;-4.70;99.90;;;;;;2068149;28;20033;-79
2024/01/08 03:55:59;;;;;;;27.20;13.80;;;-4.80;99.90;;;;;;2067705;28;20083;-78
2024/01/08 03:56:59;;;;;;;26.30;13.65;;;-4.80;99.90;;;;;;2073399;28;20033;-77
2024/01/08 03:58:00;;;;;;;25.83;13.45;;;-4.70;99.90;;;;;;2076233;28;20025;-78
2024/01/08 03:59:00;;;;;;;26.42;13.55;;;-4.70;99.90;;;;;;2079176;28;20068;-77
2024/01/08 04:00:01;;;;;;;25.58;13.30;;;-4.80;99.90;;;;;;2074783;28;20044;-79
2024/01/08 04:01:02;;;;;;;24.42;13.20;;;-4.80;99.90;;;;;;2069110;28;20026;-78
2024/01/08 04:02:02;;;;;;;25.77;13.50;;;-4.90;99.90;;;;;;2074689;28;20108;-78
2024/01/08 04:03:03;;;;;;;24.98;13.85;;;-4.80;99.90;;;;;;2074179;28;20059;-78
2024/01/08 04:04:03;;;;;;;25.85;14.15;;;-4.80;99.90;;;;;;2070169;28;20092;-78
2024/01/08 04:05:05;;;;;;;25.85;12.73;;;-4.80;99.90;;;;;;2067761;28;20030;-78
2024/01/08 04:06:05;;;;;;;25.10;13.07;;;-4.90;99.90;;;;;;2075009;28;20099;-78
2024/01/08 04:07:06;;;;;;;24.00;12.90;;;-4.90;99.90;;;;;;2058756;28;20052;-77
2024/01/08 04:08:06;;;;;;;27.60;14.25;;;-4.90;99.90;;;;;;2058790;28;20031;-78
2024/01/08 04:09:07;;;;;;;25.77;14.23;;;-5.00;99.90;;;;;;2067628;28;20127;-78
2024/01/08 04:10:08;;;;;;;24.58;13.10;;;-5.00;99.90;;;;;;2074077;28;20033;-78
2024/01/08 04:11:08;;;;;;;26.70;13.55;;;-5.10;99.90;;;;;;2071637;28;20025;-78
2024/01/08 04:12:09;;;;;;;29.08;14.25;;;-5.10;99.90;;;;;;2079038;28;20036;-78
2024/01/08 04:13:09;;;;;;;29.30;14.73;;;-5.10;99.90;;;;;;2073801;28;20033;-78
2024/01/08 04:14:12;;;;;;;28.90;13.70;;;-5.10;99.90;;;;;;2075511;28;20043;-78
2024/01/08 04:15:12;;;;;;;27.17;13.70;;;-5.10;99.90;;;;;;2073180;28;20066;-76
2024/01/08 04:16:13;;;;;;;29.25;15.25;;;-5.10;99.90;;;;;;2077249;28;20126;-78
2024/01/08 04:17:13;;;;;;;28.92;15.05;;;-5.10;99.90;;;;;;2077986;28;20036;-78
2024/01/08 04:18:14;;;;;;;29.70;14.20;;;-5.10;99.90;;;;;;2069939;28;20026;-79
2024/01/08 04:19:15;;;;;;;28.80;14.38;;;-5.10;99.90;;;;;;2069167;28;20041;-77
2024/01/08 04:20:15;;;;;;;28.20;14.45;;;-5.10;99.90;;;;;;2076492;28;20075;-78
2024/01/08 04:21:17;;;;;;;29.25;14.35;;;-5.10;99.90;;;;;;2074384;28;20048;-78
2024/01/08 04:22:17;;;;;;;28.25;14.35;;;-5.10;99.90;;;;;;2078402;28;20026;-78
2024/01/08 04:23:18;;;;;;;29.98;14.95;;;-5.20;99.90;;;;;;2079752;28;20423;-78
2024/01/08 04:24:18;;;;;;;28.33;14.63;;;-5.10;99.90;;;;;;2075476;28;20431;-78
2024/01/08 04:25:19;;;;;;;31.02;15.00;;;-5.10;99.90;;;;;;2077798;28;20499;-77
2024/01/08 04:26:20;;;;;;;27.60;14.23;;;-5.10;99.90;;;;;;2076855;28;20378;-78
2024/01/08 04:27:21;;;;;;;26.98;14.15;;;-5.10;99.90;;;;;;2068166;28;20032;-78
2024/01/08 04:28:21;;;;;;;26.25;13.98;;;-5.00;99.90;;;;;;2071488;28;20041;-79
2024/01/08 04:29:22;;;;;;;26.73;14.32;;;-5.10;99.90;;;;;;2073307;28;20037;-80
2024/01/08 04:30:23;;;;;;;26.13;13.90;;;-5.20;99.90;;;;;;2068883;28;20220;-78
2024/01/08 04:31:23;;;;;;;28.67;14.75;;;-5.20;99.90;;;;;;2068756;28;20431;-76
2024/01/08 04:32:24;;;;;;;27.80;13.93;;;-5.20;99.90;;;;;;2068591;28;20034;-79
2024/01/08 04:33:24;;;;;;;26.92;13.77;;;-5.30;99.90;;;;;;2076900;28;20177;-78
2024/01/08 04:34:26;;;;;;;25.33;13.30;;;-5.30;99.90;;;;;;2068759;28;20022;-77
2024/01/08 04:35:26;;;;;;;26.23;14.27;;;-5.30;99.90;;;;;;2075261;28;20029;-78
2024/01/08 04:36:27;;;;;;;27.45;14.07;;;-5.40;99.90;;;;;;2076307;28;20051;-78
2024/01/08 04:37:28;;;;;;;26.20;13.40;;;-5.30;99.90;;;;;;2070127;28;20029;-80
2024/01/08 04:38:28;;;;;;;27.35;14.20;;;-5.30;99.90;;;;;;2075364;28;20049;-79
2024/01/08 04:39:29;;;;;;;28.13;14.18;;;-5.30;99.90;;;;;;2076811;28;20457;-79
2024/01/08 04:40:29;;;;;;;30.30;14.45;;;-5.30;99.90;;;;;;2077600;28;20417;-78
2024/01/08 04:41:31;;;;;;;25.67;13.70;;;-5.30;99.90;;;;;;2076779;28;20025;-78
2024/01/08 04:42:31;;;;;;;25.85;13.15;;;-5.40;99.90;;;;;;2069774;28;20042;-77
2024/01/08 04:43:32;;;;;;;30.58;14.43;;;-5.40;99.90;;;;;;2080897;28;20725;-78
2024/01/08 04:44:32;;;;;;;28.42;14.95;;;-5.40;99.90;;;;;;2079942;28;20025;-78
2024/01/08 04:45:33;;;;;;;27.92;14.05;;;-5.30;99.90;;;;;;2075913;28;20410;-78
2024/01/08 04:46:34;;;;;;;28.58;14.10;;;-5.30;99.90;;;;;;2068912;28;20025;-78
2024/01/08 04:47:34;;;;;;;26.00;13.25;;;-5.30;99.90;;;;;;2076109;28;20021;-78
2024/01/08 04:48:35;;;;;;;25.90;13.57;;;-5.40;99.90;;;;;;2070103;28;20323;-78
2024/01/08 04:49:36;;;;;;;24.63;13.48;;;-5.30;99.90;;;;;;2078489;28;20476;-78
2024/01/08 04:50:36;;;;;;;25.17;13.35;;;-5.30;99.90;;;;;;2068824;28;20080;-78
2024/01/08 04:51:37;;;;;;;25.50;13.50;;;-5.30;99.90;;;;;;2068722;28;20060;-78
2024/01/08 04:52:37;;;;;;;24.73;12.65;;;-5.30;99.90;;;;;;2074474;28;20040;-79
2024/01/08 04:53:38;;;;;;;25.58;13.27;;;-5.30;99.90;;;;;;2079237;28;20029;-77
2024/01/08 04:54:45;;;;;;;27.50;13.70;;;-5.30;99.90;;;;;;2071134;28;20026;-77
2024/01/08 04:55:45;;;;;;;24.95;13.15;;;-5.20;99.90;;;;;;2072594;28;20120;-77
2024/01/08 04:56:48;;;;;;;26.50;13.27;;;-5.20;99.90;;;;;;2080521;28;20540;-75
2024/01/08 04:57:48;;;;;;;24.88;13.05;;;-5.20;99.90;;;;;;2079596;28;20025;-77
2024/01/08 04:58:51;;;;;;;25.23;12.80;;;-5.10;99.90;;;;;;2076124;28;20041;-76
2024/01/08 04:59:51;;;;;;;25.02;13.48;;;-5.10;99.90;;;;;;2079408;28;20076;-78
2024/01/08 05:00:52;;;;;;;27.95;13.45;;;-5.20;99.90;;;;;;2078111;28;20431;-77
2024/01/08 05:01:52;;;;;;;25.13;13.30;;;-5.20;99.90;;;;;;2078116;28;20754;-77
2024/01/08 05:02:53;;;;;;;25.13;12.98;;;-5.10;99.90;;;;;;2067680;28;20197;-77
2024/01/08 05:03:53;;;;;;;25.55;13.57;;;-5.20;99.90;;;;;;2068145;28;20082;-76
2024/01/08 05:04:54;;;;;;;29.10;14.02;;;-5.10;99.90;;;;;;2073233;28;20052;-77
2024/01/08 05:05:54;;;;;;;26.80;13.40;;;-5.20;99.90;;;;;;2077362;28;20041;-79
2024/01/08 05:06:55;;;;;;;28.60;14.50;;;-5.10;99.90;;;;;;2074289;28;20029;-78
2024/01/08 05:07:55;;;;;;;27.20;14.18;;;-5.20;99.90;;;;;;2057755;28;20120;-77
2024/01/08 05:08:56;;;;;;;25.77;13.07;;;-5.20;99.90;;;;;;2071005;28;20049;-77
2024/01/08 05:09:56;;;;;;;25.20;13.18;;;-5.30;99.90;;;;;;2076525;28;20960;-77